createdAt,value
2017-06-23T00:01:27.708Z,41.17
2017-06-23T00:03:53.532Z,41.10
2017-06-23T00:06:19.552Z,41.24
2017-06-23T00:08:45.516Z,40.99
2017-06-23T00:11:11.349Z,41.18
2017-06-23T00:13:37.254Z,40.84
2017-06-23T00:16:03.152Z,40.84
2017-06-23T00:18:29.000Z,40.23
2017-06-23T00:20:54.861Z,38.89
2017-06-23T00:23:20.760Z,38.31
2017-06-23T00:25:46.712Z,38.11
2017-06-23T00:28:12.552Z,38.14
2017-06-23T00:30:38.516Z,37.25
2017-06-23T00:33:04.372Z,36.81
2017-06-23T00:35:30.255Z,36.75
2017-06-23T00:37:56.149Z,36.73
2017-06-23T00:40:21.988Z,36.67
2017-06-23T00:42:47.872Z,36.62
2017-06-23T00:45:13.817Z,36.69
2017-06-23T00:47:39.719Z,36.68
2017-06-23T00:50:05.660Z,36.77
2017-06-23T00:52:31.536Z,37.03
2017-06-23T00:54:57.376Z,37.06
2017-06-23T00:57:23.211Z,37.30
2017-06-23T00:59:49.169Z,37.64
2017-06-23T01:02:15.070Z,37.99
2017-06-23T01:04:40.981Z,38.55
2017-06-23T01:07:06.827Z,38.82
2017-06-23T01:09:32.700Z,39.08
2017-06-23T01:11:58.681Z,39.10
2017-06-23T01:14:24.569Z,39.53
2017-06-23T01:16:51.588Z,39.77
2017-06-23T01:19:17.464Z,40.39
2017-06-23T01:21:43.367Z,42.23
2017-06-23T01:24:09.232Z,42.77
2017-06-23T01:26:35.148Z,43.61
2017-06-23T01:29:01.019Z,43.90
2017-06-23T01:31:26.913Z,44.66
2017-06-23T01:33:52.760Z,45.21
2017-06-23T01:36:18.680Z,45.44
2017-06-23T01:38:44.577Z,46.03
2017-06-23T01:41:10.684Z,46.62
2017-06-23T01:43:36.554Z,47.36
2017-06-23T01:46:02.437Z,48.20
2017-06-23T01:48:28.523Z,48.64
2017-06-23T01:50:54.448Z,49.47
2017-06-23T01:53:20.366Z,49.74
2017-06-23T01:55:53.164Z,50.48
2017-06-23T01:58:19.047Z,50.55
2017-06-23T02:00:45.027Z,50.90
2017-06-23T02:03:10.892Z,51.42
2017-06-23T02:05:36.910Z,51.62
2017-06-23T02:08:02.860Z,51.64
2017-06-23T02:10:28.752Z,52.07
2017-06-23T02:12:54.681Z,52.86
2017-06-23T02:15:20.536Z,53.03
2017-06-23T02:17:47.180Z,53.14
2017-06-23T02:20:13.623Z,53.24
2017-06-23T02:22:39.503Z,53.91
2017-06-23T02:25:05.424Z,53.59
2017-06-23T02:27:31.328Z,53.92
2017-06-23T02:29:58.111Z,54.22
2017-06-23T02:32:23.961Z,54.59
2017-06-23T02:34:49.872Z,54.18
2017-06-23T02:37:15.744Z,54.51
2017-06-23T02:39:41.647Z,55.51
2017-06-23T02:42:07.493Z,56.62
2017-06-23T02:44:33.458Z,56.79
2017-06-23T02:46:59.315Z,57.07
2017-06-23T02:49:25.161Z,56.78
2017-06-23T02:51:51.191Z,56.51
2017-06-23T02:54:17.126Z,56.90
2017-06-23T02:56:42.997Z,56.88
2017-06-23T02:59:09.109Z,56.45
2017-06-23T03:01:34.976Z,56.31
2017-06-23T03:04:00.890Z,56.44
2017-06-23T03:06:26.859Z,56.41
2017-06-23T03:08:52.705Z,56.56
2017-06-23T03:11:18.684Z,56.50
2017-06-23T03:13:44.524Z,56.62
2017-06-23T03:16:10.392Z,56.53
2017-06-23T03:18:36.397Z,57.29
2017-06-23T03:21:02.216Z,56.80
2017-06-23T03:23:29.015Z,56.83
2017-06-23T03:25:54.872Z,56.69
2017-06-23T03:28:20.697Z,56.39
2017-06-23T03:30:46.538Z,56.08
2017-06-23T03:33:12.521Z,55.76
2017-06-23T03:35:38.353Z,55.22
2017-06-23T03:38:04.193Z,55.23
2017-06-23T03:40:30.164Z,55.17
2017-06-23T03:42:56.039Z,55.21
2017-06-23T03:45:22.025Z,55.03
2017-06-23T03:47:47.903Z,55.21
2017-06-23T03:50:14.908Z,55.20
2017-06-23T03:52:40.778Z,55.39
2017-06-23T03:55:06.688Z,55.55
2017-06-23T03:57:32.613Z,55.40
2017-06-23T03:59:58.500Z,55.27
2017-06-23T04:02:24.346Z,55.35
2017-06-23T04:04:50.306Z,55.12
2017-06-23T04:07:16.197Z,55.06
2017-06-23T04:09:42.074Z,54.99
2017-06-23T04:12:07.976Z,55.28
2017-06-23T04:14:33.928Z,54.94
2017-06-23T04:16:59.757Z,54.70
2017-06-23T04:19:25.818Z,54.86
2017-06-23T04:21:51.792Z,54.88
2017-06-23T04:24:17.674Z,55.25
2017-06-23T04:26:43.556Z,55.07
2017-06-23T04:29:09.451Z,55.22
2017-06-23T04:31:35.270Z,55.12
2017-06-23T04:34:01.077Z,55.15
2017-06-23T04:36:26.971Z,55.59
2017-06-23T04:38:52.872Z,54.97
2017-06-23T04:41:18.766Z,54.70
2017-06-23T04:43:44.775Z,54.43
2017-06-23T04:46:10.808Z,54.59
2017-06-23T04:48:36.850Z,54.50
2017-06-23T04:51:02.902Z,54.71
2017-06-23T04:53:28.884Z,54.45
2017-06-23T04:55:54.713Z,54.39
2017-06-23T04:58:20.534Z,54.49
2017-06-23T05:00:46.528Z,54.67
2017-06-23T05:03:12.389Z,54.45
2017-06-23T05:05:38.325Z,54.08
2017-06-23T05:08:04.127Z,53.98
2017-06-23T05:10:30.042Z,54.14
2017-06-23T05:12:56.089Z,53.50
2017-06-23T05:15:22.137Z,53.41
2017-06-23T05:17:48.109Z,53.32
2017-06-23T05:20:14.075Z,53.47
2017-06-23T05:22:39.982Z,52.80
2017-06-23T05:25:05.908Z,52.77
2017-06-23T05:27:31.841Z,52.80
2017-06-23T05:29:57.747Z,52.33
2017-06-23T05:32:23.704Z,52.78
2017-06-23T05:34:49.670Z,52.03
2017-06-23T05:37:15.702Z,51.81
2017-06-23T05:39:41.673Z,51.72
2017-06-23T05:42:07.560Z,51.46
2017-06-23T05:44:33.617Z,51.65
2017-06-23T05:46:59.707Z,51.55
2017-06-23T05:49:25.707Z,51.70
2017-06-23T05:51:51.585Z,51.07
2017-06-23T05:54:17.469Z,50.58
2017-06-23T05:56:43.311Z,50.42
2017-06-23T05:59:09.281Z,49.80
2017-06-23T06:01:35.093Z,49.39
2017-06-23T06:04:00.953Z,49.46
2017-06-23T06:06:26.808Z,48.93
2017-06-23T06:08:52.811Z,49.14
2017-06-23T06:11:18.731Z,48.49
2017-06-23T06:13:44.588Z,48.32
2017-06-23T06:16:10.427Z,48.70
2017-06-23T06:18:36.551Z,48.31
2017-06-23T06:21:02.417Z,47.55
2017-06-23T06:23:28.226Z,46.75
2017-06-23T06:25:54.099Z,46.38
2017-06-23T06:28:19.956Z,45.45
2017-06-23T06:30:46.060Z,46.06
2017-06-23T06:33:11.940Z,44.59
2017-06-23T06:35:37.763Z,44.41
2017-06-23T06:38:03.622Z,44.65
2017-06-23T06:40:30.142Z,43.66
2017-06-23T06:42:56.852Z,43.54
2017-06-23T06:45:22.763Z,42.64
2017-06-23T06:47:49.515Z,42.88
2017-06-23T06:50:15.961Z,42.86
2017-06-23T06:52:41.983Z,42.96
2017-06-23T06:55:07.806Z,41.99
2017-06-23T06:57:33.750Z,42.16
2017-06-23T06:59:59.645Z,42.22
2017-06-23T07:02:25.531Z,42.84
2017-06-23T07:04:51.433Z,41.92
2017-06-23T07:07:17.387Z,42.14
2017-06-23T07:09:43.333Z,43.32
2017-06-23T07:12:09.218Z,42.34
2017-06-23T07:14:35.150Z,42.12
2017-06-23T07:17:00.997Z,42.27
2017-06-23T07:19:26.881Z,42.32
2017-06-23T07:21:52.694Z,42.39
2017-06-23T07:24:18.560Z,42.76
2017-06-23T07:26:44.490Z,42.09
2017-06-23T07:29:10.345Z,42.48
2017-06-23T07:31:36.436Z,41.83
2017-06-23T07:34:02.322Z,40.90
2017-06-23T07:36:28.202Z,40.85
2017-06-23T07:38:54.040Z,41.36
2017-06-23T07:41:19.921Z,41.06
2017-06-23T07:43:45.852Z,41.26
2017-06-23T07:46:11.717Z,40.33
2017-06-23T07:48:37.803Z,40.09
2017-06-23T07:51:03.701Z,41.09
2017-06-23T07:53:29.577Z,39.81
2017-06-23T07:55:55.621Z,39.82
2017-06-23T07:58:21.457Z,40.71
2017-06-23T08:00:47.444Z,40.38
2017-06-23T08:03:13.284Z,40.29
2017-06-23T08:05:39.207Z,39.33
2017-06-23T08:08:05.098Z,39.11
2017-06-23T08:10:31.139Z,39.91
2017-06-23T08:12:56.990Z,38.98
2017-06-23T08:15:22.900Z,39.81
2017-06-23T08:17:48.747Z,39.07
2017-06-23T08:20:14.588Z,39.24
2017-06-23T08:22:40.449Z,38.67
2017-06-23T08:25:06.535Z,39.24
2017-06-23T08:27:32.456Z,38.86
2017-06-23T08:29:58.321Z,38.97
2017-06-23T08:32:24.383Z,40.20
2017-06-23T08:34:50.387Z,40.48
2017-06-23T08:37:16.938Z,39.65
2017-06-23T08:39:42.840Z,40.96
2017-06-23T08:42:08.951Z,38.91
2017-06-23T08:44:34.801Z,39.07
2017-06-23T08:47:00.772Z,39.81
2017-06-23T08:49:26.704Z,40.13
2017-06-23T08:51:52.601Z,38.91
2017-06-23T08:54:19.107Z,38.82
2017-06-23T08:56:45.057Z,38.39
2017-06-23T08:59:11.035Z,38.49
2017-06-23T09:01:37.131Z,39.88
2017-06-23T09:04:03.013Z,39.49
2017-06-23T09:06:28.901Z,40.64
2017-06-23T09:08:54.860Z,40.45
2017-06-23T09:11:21.050Z,40.13
2017-06-23T09:13:47.048Z,40.20
2017-06-23T09:16:12.910Z,40.45
2017-06-23T09:18:38.887Z,40.01
2017-06-23T09:21:04.840Z,40.37
2017-06-23T09:23:30.913Z,40.60
2017-06-23T09:25:56.865Z,39.74
2017-06-23T09:28:22.704Z,39.09
2017-06-23T09:30:48.781Z,39.18
2017-06-23T09:33:14.740Z,39.21
2017-06-23T09:35:40.836Z,38.05
2017-06-23T09:38:06.723Z,38.27
2017-06-23T09:40:32.816Z,38.94
2017-06-23T09:42:58.972Z,39.39
2017-06-23T09:45:24.863Z,38.88
2017-06-23T09:47:50.743Z,38.89
2017-06-23T09:50:16.744Z,38.06
2017-06-23T09:52:43.876Z,38.31
2017-06-23T09:55:09.712Z,38.04
2017-06-23T09:57:35.631Z,37.93
2017-06-23T10:00:01.621Z,37.73
2017-06-23T10:02:27.672Z,39.14
2017-06-23T10:04:53.715Z,37.79
2017-06-23T10:07:19.706Z,37.91
2017-06-23T10:09:45.557Z,37.19
2017-06-23T10:12:11.512Z,37.61
2017-06-23T10:14:37.392Z,37.93
2017-06-23T10:17:03.419Z,38.11
2017-06-23T10:19:29.507Z,37.62
2017-06-23T10:21:55.504Z,38.02
2017-06-23T10:24:21.427Z,38.83
2017-06-23T10:26:47.379Z,37.59
2017-06-23T10:29:13.278Z,39.34
2017-06-23T10:31:39.183Z,38.87
2017-06-23T10:34:05.225Z,37.01
2017-06-23T10:36:31.310Z,37.25
2017-06-23T10:38:58.316Z,36.74
2017-06-23T10:41:24.361Z,36.03
2017-06-23T10:43:50.321Z,38.72
2017-06-23T10:46:16.320Z,39.81
2017-06-23T10:48:42.344Z,39.75
2017-06-23T10:51:08.324Z,39.93
2017-06-23T10:53:34.232Z,40.49
2017-06-23T10:56:00.323Z,40.19
2017-06-23T10:58:26.140Z,38.86
2017-06-23T11:00:51.992Z,38.11
2017-06-23T11:03:17.952Z,39.67
2017-06-23T11:05:43.852Z,40.02
2017-06-23T11:08:09.805Z,39.10
2017-06-23T11:10:35.684Z,39.40
2017-06-23T11:13:01.527Z,40.65
2017-06-23T11:15:27.409Z,38.55
2017-06-23T11:17:54.144Z,39.71
2017-06-23T11:20:20.052Z,38.68
2017-06-23T11:22:46.013Z,40.21
2017-06-23T11:25:11.894Z,39.82
2017-06-23T11:27:37.856Z,39.68
2017-06-23T11:30:03.708Z,38.61
2017-06-23T11:32:29.593Z,37.35
2017-06-23T11:34:56.352Z,38.45
2017-06-23T11:37:22.206Z,38.68
2017-06-23T11:39:48.195Z,39.70
2017-06-23T11:42:14.124Z,39.84
2017-06-23T11:44:40.032Z,39.45
2017-06-23T11:47:05.909Z,38.88
2017-06-23T11:49:31.896Z,39.52
2017-06-23T11:51:57.884Z,39.13
2017-06-23T11:54:23.776Z,38.49
2017-06-23T11:56:49.764Z,38.95
2017-06-23T11:59:15.616Z,38.35
2017-06-23T12:01:41.623Z,40.05
2017-06-23T12:04:07.660Z,37.38
2017-06-23T12:06:33.661Z,37.86
2017-06-23T12:08:59.501Z,39.15
2017-06-23T12:11:25.380Z,38.08
2017-06-23T12:13:51.275Z,36.74
2017-06-23T12:16:17.203Z,37.11
2017-06-23T12:18:43.181Z,37.60
2017-06-23T12:21:09.035Z,38.10
2017-06-23T12:23:34.969Z,39.42
2017-06-23T12:26:00.866Z,38.91
2017-06-23T12:28:26.793Z,39.14
2017-06-23T12:30:52.674Z,38.84
2017-06-23T12:33:18.543Z,38.66
2017-06-23T12:35:44.513Z,37.92
2017-06-23T12:38:10.369Z,38.81
2017-06-23T12:40:36.265Z,38.34
2017-06-23T12:43:02.168Z,38.61
2017-06-23T12:45:28.001Z,39.00
2017-06-23T12:47:53.919Z,44.81
2017-06-23T12:50:19.838Z,39.04
2017-06-23T12:52:45.711Z,39.12
2017-06-23T12:55:11.649Z,39.32
2017-06-23T12:57:38.658Z,38.98
2017-06-23T13:00:04.736Z,37.77
2017-06-23T13:02:30.590Z,38.27
2017-06-23T13:04:56.669Z,38.46
2017-06-23T13:07:22.580Z,38.35
2017-06-23T13:09:48.471Z,38.98
2017-06-23T13:12:14.922Z,39.28
2017-06-23T13:14:40.977Z,39.39
2017-06-23T13:17:07.040Z,38.38
2017-06-23T13:19:33.007Z,40.01
2017-06-23T13:21:58.900Z,40.80
2017-06-23T13:24:26.001Z,40.11
2017-06-23T13:26:51.960Z,39.10
2017-06-23T13:29:17.826Z,39.06
2017-06-23T13:31:43.792Z,39.96
2017-06-23T13:34:09.656Z,39.00
2017-06-23T13:36:36.449Z,39.48
2017-06-23T13:39:02.388Z,38.67
2017-06-23T13:41:28.252Z,38.18
2017-06-23T13:43:54.147Z,38.05
2017-06-23T13:46:20.183Z,37.38
2017-06-23T13:48:46.949Z,38.45
2017-06-23T13:51:12.784Z,38.23
2017-06-23T13:53:38.657Z,38.02
2017-06-23T13:56:04.488Z,38.95
2017-06-23T13:58:30.460Z,38.19
2017-06-23T14:00:56.400Z,40.39
2017-06-23T14:03:22.368Z,38.90
2017-06-23T14:05:48.383Z,38.10
2017-06-23T14:08:14.375Z,39.11
2017-06-23T14:10:40.228Z,38.06
2017-06-23T14:13:06.237Z,39.93
2017-06-23T14:15:32.083Z,39.20
2017-06-23T14:17:58.058Z,38.77
2017-06-23T14:20:23.936Z,38.77
2017-06-23T14:22:49.857Z,38.54
2017-06-23T14:25:15.783Z,38.40
2017-06-23T14:27:41.785Z,37.94
2017-06-23T14:30:07.752Z,37.83
2017-06-23T14:32:33.687Z,37.63
2017-06-23T14:34:59.591Z,38.29
2017-06-23T14:37:25.571Z,37.84
2017-06-23T14:39:51.428Z,38.43
2017-06-23T14:42:17.273Z,39.26
2017-06-23T14:44:43.172Z,38.34
2017-06-23T14:47:09.169Z,38.52
2017-06-23T14:49:35.200Z,37.88
2017-06-23T14:52:02.254Z,38.09
2017-06-23T14:54:28.221Z,37.33
2017-06-23T14:56:54.068Z,37.50
2017-06-23T14:59:20.104Z,37.29
2017-06-23T15:01:46.160Z,38.02
2017-06-23T15:04:12.183Z,37.24
2017-06-23T15:06:38.210Z,36.87
2017-06-23T15:09:04.232Z,37.34
2017-06-23T15:11:30.263Z,37.44
2017-06-23T15:13:56.274Z,37.65
2017-06-23T15:16:22.266Z,37.21
2017-06-23T15:18:48.174Z,37.96
2017-06-23T15:21:14.029Z,37.36
2017-06-23T15:23:39.961Z,37.24
2017-06-23T15:26:06.534Z,36.62
2017-06-23T15:28:32.605Z,38.10
2017-06-23T15:30:58.661Z,37.51
2017-06-23T15:33:24.671Z,37.25
2017-06-23T15:35:50.685Z,36.85
2017-06-23T15:38:17.047Z,37.29
2017-06-23T15:40:42.916Z,37.71
2017-06-23T15:43:08.757Z,37.30
2017-06-23T15:45:34.811Z,37.37
2017-06-23T15:48:00.812Z,37.81
2017-06-23T15:50:26.748Z,36.28
2017-06-23T15:52:52.699Z,35.35
2017-06-23T15:55:18.657Z,35.22
2017-06-23T15:57:45.970Z,35.72
2017-06-23T16:00:11.926Z,35.36
2017-06-23T16:02:37.754Z,35.36
2017-06-23T16:05:03.746Z,34.90
2017-06-23T16:07:29.607Z,35.45
2017-06-23T16:09:55.616Z,35.36
2017-06-23T16:12:21.704Z,36.33
2017-06-23T16:14:47.703Z,35.47
2017-06-23T16:17:13.609Z,35.87
2017-06-23T16:19:39.585Z,35.39
2017-06-23T16:22:05.547Z,35.44
2017-06-23T16:24:31.374Z,36.52
2017-06-23T16:26:57.453Z,36.31
2017-06-23T16:29:23.390Z,35.93
2017-06-23T16:31:49.443Z,35.43
2017-06-23T16:34:15.473Z,35.74
2017-06-23T16:36:41.400Z,36.42
2017-06-23T16:39:07.251Z,36.85
2017-06-23T16:41:33.116Z,36.20
2017-06-23T16:43:58.973Z,36.92
2017-06-23T16:46:24.962Z,36.70
2017-06-23T16:48:50.869Z,36.70
2017-06-23T16:51:16.708Z,37.02
2017-06-23T16:53:42.569Z,36.40
2017-06-23T16:56:08.435Z,35.93
2017-06-23T16:58:34.483Z,36.27
2017-06-23T17:01:00.460Z,36.69
2017-06-23T17:03:26.328Z,37.11
2017-06-23T17:05:52.376Z,36.38
2017-06-23T17:08:18.311Z,35.95
2017-06-23T17:10:44.208Z,36.67
2017-06-23T17:13:10.110Z,36.92
2017-06-23T17:15:35.977Z,37.53
2017-06-23T17:18:01.925Z,37.88
2017-06-23T17:20:27.800Z,38.20
2017-06-23T17:22:53.886Z,38.26
2017-06-23T17:25:19.759Z,38.21
2017-06-23T17:27:45.650Z,37.91
2017-06-23T17:30:11.623Z,38.57
2017-06-23T17:32:37.462Z,38.93
2017-06-23T17:35:03.310Z,38.62
2017-06-23T17:37:29.224Z,40.16
2017-06-23T17:39:55.108Z,40.58
2017-06-23T17:42:20.977Z,41.33
2017-06-23T17:44:46.912Z,39.63
2017-06-23T17:47:12.820Z,38.89
2017-06-23T17:49:38.766Z,39.78
2017-06-23T17:52:04.636Z,40.33
2017-06-23T17:54:30.516Z,40.72
2017-06-23T17:56:56.609Z,39.89
2017-06-23T17:59:22.522Z,40.48
2017-06-23T18:01:48.412Z,40.62
2017-06-23T18:04:14.285Z,41.19
2017-06-23T18:06:40.172Z,40.91
2017-06-23T18:09:06.021Z,40.79
2017-06-23T18:11:31.992Z,41.06
2017-06-23T18:13:57.836Z,41.60
2017-06-23T18:16:23.937Z,41.81
2017-06-23T18:18:49.813Z,41.74
2017-06-23T18:21:15.656Z,41.60
2017-06-23T18:23:41.583Z,42.01
2017-06-23T18:26:07.552Z,41.87
2017-06-23T18:28:33.491Z,42.90
2017-06-23T18:30:59.381Z,41.99
2017-06-23T18:33:25.241Z,42.86
2017-06-23T18:35:51.263Z,42.65
2017-06-23T18:38:17.306Z,42.18
2017-06-23T18:40:43.770Z,42.75
2017-06-23T18:43:09.922Z,42.87
2017-06-23T18:45:35.804Z,42.98
2017-06-23T18:48:01.822Z,43.31
2017-06-23T18:50:27.772Z,42.84
2017-06-23T18:52:53.626Z,42.33
2017-06-23T18:55:19.597Z,41.50
2017-06-23T18:57:45.977Z,41.24
2017-06-23T19:00:11.847Z,40.93
2017-06-23T19:02:37.725Z,40.89
2017-06-23T19:05:03.667Z,40.70
2017-06-23T19:07:29.532Z,40.94
2017-06-23T19:09:55.382Z,41.03
2017-06-23T19:12:21.263Z,41.33
2017-06-23T19:14:47.199Z,41.65
2017-06-23T19:17:13.060Z,41.98
2017-06-23T19:19:38.886Z,42.10
2017-06-23T19:22:04.841Z,42.22
2017-06-23T19:24:30.703Z,42.15
2017-06-23T19:26:56.573Z,42.30
2017-06-23T19:29:23.111Z,41.80
2017-06-23T19:31:49.014Z,41.35
2017-06-23T19:34:15.051Z,42.02
2017-06-23T19:36:41.056Z,42.00
2017-06-23T19:39:07.172Z,42.63
2017-06-23T19:41:34.159Z,42.83
2017-06-23T19:44:00.159Z,42.98
2017-06-23T19:46:26.125Z,43.47
2017-06-23T19:48:51.981Z,43.78
2017-06-23T19:51:17.887Z,44.11
2017-06-23T19:53:43.771Z,43.93
2017-06-23T19:56:09.725Z,44.54
2017-06-23T19:58:35.601Z,44.72
2017-06-23T20:01:01.459Z,44.53
2017-06-23T20:03:27.279Z,44.72
2017-06-23T20:05:53.186Z,45.62
2017-06-23T20:08:19.100Z,45.22
2017-06-23T20:10:44.994Z,46.14
2017-06-23T20:13:10.972Z,46.05
2017-06-23T20:15:36.869Z,45.63
2017-06-23T20:18:02.857Z,46.23
2017-06-23T20:20:28.812Z,46.94
2017-06-23T20:22:54.742Z,47.76
2017-06-23T20:25:20.679Z,48.04
2017-06-23T20:27:46.564Z,48.53
2017-06-23T20:30:12.533Z,48.65
2017-06-23T20:32:38.421Z,48.22
2017-06-23T20:35:04.371Z,48.22
2017-06-23T20:37:30.332Z,48.80
2017-06-23T20:39:56.195Z,48.94
2017-06-23T20:42:22.091Z,49.14
2017-06-23T20:44:48.052Z,49.62
2017-06-23T20:47:13.929Z,49.38
2017-06-23T20:49:39.985Z,49.46
2017-06-23T20:52:06.729Z,49.28
2017-06-23T20:54:32.654Z,49.86
2017-06-23T20:56:58.556Z,50.24
2017-06-23T20:59:24.444Z,50.41
2017-06-23T21:01:50.478Z,50.28
2017-06-23T21:04:16.553Z,51.07
2017-06-23T21:06:42.551Z,51.15
2017-06-23T21:09:08.578Z,51.23
2017-06-23T21:11:34.540Z,51.60
2017-06-23T21:14:00.514Z,51.75
2017-06-23T21:16:26.493Z,51.44
2017-06-23T21:18:52.364Z,51.68
2017-06-23T21:21:18.236Z,51.47
2017-06-23T21:23:44.244Z,51.94
2017-06-23T21:26:10.224Z,52.69
2017-06-23T21:28:36.092Z,53.16
2017-06-23T21:31:01.960Z,53.37
2017-06-23T21:33:27.968Z,53.30
2017-06-23T21:35:53.960Z,53.42
2017-06-23T21:38:19.924Z,53.74
2017-06-23T21:40:58.343Z,53.96
2017-06-23T21:43:24.345Z,54.53
2017-06-23T21:45:50.209Z,54.87
2017-06-23T21:48:16.163Z,55.12
2017-06-23T21:50:42.032Z,55.42
2017-06-23T21:53:08.022Z,55.47
2017-06-23T21:55:34.136Z,55.34
2017-06-23T21:58:00.031Z,55.87
2017-06-23T22:00:25.912Z,55.50
2017-06-23T22:02:51.791Z,55.91
2017-06-23T22:05:17.697Z,55.61
2017-06-23T22:07:43.653Z,55.55
2017-06-23T22:10:09.934Z,55.61
2017-06-23T22:12:35.884Z,55.18
2017-06-23T22:15:01.816Z,55.30
2017-06-23T22:17:27.721Z,57.36
2017-06-23T22:19:53.624Z,59.25
2017-06-23T22:22:19.574Z,58.52
2017-06-23T22:24:45.481Z,58.66
2017-06-23T22:27:11.356Z,58.43
2017-06-23T22:29:37.210Z,58.34
2017-06-23T22:32:03.177Z,58.65
2017-06-23T22:34:29.077Z,59.25
2017-06-23T22:36:54.982Z,58.89
2017-06-23T22:39:20.946Z,58.68
2017-06-23T22:41:46.803Z,58.35
2017-06-23T22:44:12.651Z,58.63
2017-06-23T22:46:38.557Z,58.03
2017-06-23T22:49:04.514Z,58.48
2017-06-23T22:51:30.409Z,58.94
2017-06-23T22:53:56.344Z,58.75
2017-06-23T22:56:22.223Z,59.42
2017-06-23T22:58:48.042Z,59.78
2017-06-23T23:01:13.936Z,59.57
2017-06-23T23:03:39.864Z,59.97
2017-06-23T23:06:05.712Z,59.57
2017-06-23T23:08:31.629Z,59.28
2017-06-23T23:10:57.504Z,59.64
2017-06-23T23:13:23.405Z,60.12
2017-06-23T23:15:49.384Z,60.42
2017-06-23T23:18:15.268Z,61.08
2017-06-23T23:20:41.168Z,61.27
2017-06-23T23:23:07.051Z,61.30
2017-06-23T23:25:32.889Z,61.19
2017-06-23T23:27:58.900Z,61.64
2017-06-23T23:30:24.966Z,61.14
2017-06-23T23:32:50.883Z,60.52
2017-06-23T23:35:16.764Z,59.90
2017-06-23T23:37:42.631Z,59.50
2017-06-23T23:40:08.549Z,59.54
2017-06-23T23:42:34.419Z,59.83
2017-06-23T23:45:00.249Z,59.36
2017-06-23T23:47:26.164Z,60.29
2017-06-23T23:49:52.036Z,60.73
2017-06-23T23:52:17.932Z,61.05
2017-06-23T23:54:43.886Z,61.53
2017-06-23T23:57:09.728Z,61.59
2017-06-23T23:59:35.597Z,61.62
